| time (UTC) | temp F | wind direction | speed knots | gust knots | rain 1hr in | rain 24hr in | rain mn in | humidity % | barometer mb |
| 20260509002324 | 63 | 130 | 0.0 | 0.0 | 0.00 | 0.00 | 0.00 | 70 | |
| 20260509001822 | 64 | 130 | 0.0 | 0.0 | 0.00 | 0.00 | 0.00 | 70 | |
| 20260509001317 | 64 | 130 | 0.0 | 0.0 | 0.00 | 0.00 | 0.00 | 69 | |
| 20260509000815 | 64 | 130 | 0.0 | 0.0 | 0.00 | 0.00 | 0.00 | 71 | |
| 20260509000313 | 64 | 130 | 0.0 | 0.0 | 0.00 | 0.00 | 0.00 | 67 | |
| 20260508235809 | 64 | 130 | 0.0 | 0.0 | 0.00 | 0.00 | 0.00 | 68 | |
| 20260508235306 | 65 | 130 | 0.0 | 0.0 | 0.00 | 0.00 | 0.00 | 72 | |
| 20260508234803 | 65 | 136 | 0.0 | 0.0 | 0.00 | 0.00 | 0.00 | 65 | |
| 20260508234253 | 65 | 136 | 0.0 | 0.0 | 0.00 | 0.00 | 0.00 | 65 | |
| 20260508233747 | 65 | 135 | 0.0 | 0.0 | 0.00 | 0.00 | 0.00 | 64 | |
| 20260508233245 | 66 | 135 | 0.0 | 0.0 | 0.00 | 0.00 | 0.00 | 66 | |
| 20260508232742 | 66 | 136 | 0.0 | 0.0 | 0.00 | 0.00 | 0.00 | 65 | |
| 20260508232238 | 66 | 135 | 0.0 | 0.0 | 0.00 | 0.00 | 0.00 | 66 | |
| 20260508231737 | 66 | 135 | 0.0 | 0.0 | 0.00 | 0.00 | 0.00 | 69 | |
| 20260508231233 | 66 | 135 | 0.0 | 0.0 | 0.00 | 0.00 | 0.00 | 62 | |
| 20260508230730 | 66 | 136 | 0.0 | 0.0 | 0.00 | 0.00 | 0.00 | 66 | |
| 20260508230226 | 66 | 135 | 0.0 | 0.0 | 0.00 | 0.00 | 0.00 | 67 | |
| 20260508225724 | 66 | 136 | 0.0 | 0.0 | 0.00 | 0.00 | 0.00 | 63 | |
| 20260508225220 | 66 | 135 | 0.0 | 0.0 | 0.00 | 0.00 | 0.00 | 67 | |
| 20260508224718 | 66 | 135 | 0.0 | 0.0 | 0.00 | 0.00 | 0.00 | 67 | |
| 20260508224215 | 67 | 135 | 0.0 | 0.0 | 0.00 | 0.00 | 0.00 | 60 | |
| 20260508223713 | 67 | 135 | 0.0 | 0.0 | 0.00 | 0.00 | 0.00 | 62 | |
| 20260508223210 | 67 | 135 | 0.0 | 0.0 | 0.00 | 0.00 | 0.00 | 61 | |
| 20260508222707 | 67 | 129 | 0.0 | 0.0 | 0.00 | 0.00 | 0.00 | 63 | |
| 20260508222205 | 67 | 130 | 0.0 | 0.0 | 0.00 | 0.00 | 0.00 | 61 | |
| 20260508221701 | 67 | 140 | 0.0 | 0.0 | 0.00 | 0.00 | 0.00 | 62 | |
| 20260508221156 | 67 | 139 | 0.0 | 0.0 | 0.00 | 0.00 | 0.00 | 62 | |
| 20260508220653 | 67 | 140 | 0.0 | 0.9 | 0.00 | 0.00 | 0.00 | 61 | |
| 20260508220150 | 67 | 133 | 0.0 | 0.9 | 0.00 | 0.00 | 0.00 | 60 | |
| 20260508215646 | 68 | 140 | 0.0 | 0.0 | 0.00 | 0.00 | 0.00 | 60 | |
| 20260508215143 | 68 | 140 | 0.0 | 0.0 | 0.00 | 0.00 | 0.00 | 60 | |
| 20260508214640 | 68 | 140 | 0.0 | 0.0 | 0.00 | 0.00 | 0.00 | 58 | |
| 20260508214137 | 68 | 140 | 0.0 | 0.0 | 0.00 | 0.00 | 0.00 | 61 | |
| 20260508213634 | 68 | 128 | 0.0 | 0.9 | 0.00 | 0.00 | 0.00 | 60 | |
| 20260508213130 | 68 | 137 | 0.0 | 0.0 | 0.00 | 0.00 | 0.00 | 57 | |
| 20260508212627 | 68 | 143 | 0.0 | 0.0 | 0.00 | 0.00 | 0.00 | 60 | |
| 20260508212123 | 68 | 149 | 0.9 | 0.9 | 0.00 | 0.00 | 0.00 | 59 | |
| 20260508211618 | 68 | 126 | 0.9 | 2.6 | 0.00 | 0.00 | 0.00 | 58 | |
| 20260508211115 | 69 | 129 | 0.0 | 0.9 | 0.00 | 0.00 | 0.00 | 57 | |
| 20260508210612 | 69 | 135 | 0.0 | 0.9 | 0.00 | 0.00 | 0.00 | 59 | |
| 20260508210109 | 69 | 143 | 0.9 | 0.9 | 0.00 | 0.00 | 0.00 | 59 | |
| 20260508205606 | 69 | 139 | 0.9 | 0.9 | 0.00 | 0.00 | 0.00 | 55 | |
| 20260508205103 | 69 | 129 | 0.0 | 0.0 | 0.00 | 0.00 | 0.00 | 56 | |
| 20260508204559 | 68 | 135 | 0.0 | 0.9 | 0.00 | 0.00 | 0.00 | 53 | |
| 20260508204055 | 69 | 142 | 0.0 | 0.0 | 0.00 | 0.00 | 0.00 | 59 | |
| 20260508203551 | 69 | 135 | 0.0 | 0.0 | 0.00 | 0.00 | 0.00 | 54 | |
| 20260508203047 | 69 | 146 | 0.9 | 0.9 | 0.00 | 0.00 | 0.00 | 55 | |
| 20260508202544 | 69 | 148 | 0.9 | 1.7 | 0.00 | 0.00 | 0.00 | 56 | |
| 20260508202042 | 69 | 150 | 0.9 | 1.7 | 0.00 | 0.00 | 0.00 | 56 | |
| 20260508201538 | 69 | 132 | 1.7 | 1.7 | 0.00 | 0.00 | 0.00 | 52 | |
| 20260508201034 | 69 | 133 | 0.0 | 0.9 | 0.00 | 0.00 | 0.00 | 54 | |
| 20260508200532 | 69 | 148 | 0.9 | 1.7 | 0.00 | 0.00 | 0.00 | 52 | |
| 20260508200027 | 70 | 140 | 0.0 | 1.7 | 0.00 | 0.00 | 0.00 | 54 | |
| 20260508195524 | 71 | 142 | 0.9 | 0.9 | 0.00 | 0.00 | 0.00 | 53 | |
| 20260508195020 | 71 | 149 | 0.9 | 1.7 | 0.00 | 0.00 | 0.00 | 50 | |
| 20260508194518 | 71 | 140 | 0.0 | 0.9 | 0.00 | 0.00 | 0.00 | 51 | |
| 20260508194015 | 71 | 120 | 0.9 | 1.7 | 0.00 | 0.00 | 0.00 | 50 | |
| 20260508193511 | 71 | 132 | 0.0 | 0.9 | 0.00 | 0.00 | 0.00 | 50 | |
| 20260508193008 | 71 | 146 | 0.9 | 1.7 | 0.00 | 0.00 | 0.00 | 49 | |
| 20260508192504 | 73 | 134 | 0.0 | 1.7 | 0.00 | 0.00 | 0.00 | 47 | |
| 20260508192002 | 73 | 139 | 0.9 | 0.9 | 0.00 | 0.00 | 0.00 | 48 | |
| 20260508191458 | 72 | 140 | 0.0 | 0.9 | 0.00 | 0.00 | 0.00 | 48 | |
| 20260508190955 | 71 | 158 | 0.0 | 0.9 | 0.00 | 0.00 | 0.00 | 51 | |
| 20260508190453 | 69 | 134 | 1.7 | 1.7 | 0.00 | 0.00 | 0.00 | 51 | |
| 20260508185948 | 70 | 133 | 0.9 | 2.6 | 0.00 | 0.00 | 0.00 | 52 | |
| 20260508185446 | 71 | 139 | 0.0 | 2.6 | 0.00 | 0.00 | 0.00 | 50 | |
| 20260508184943 | 72 | 138 | 0.0 | 1.7 | 0.00 | 0.00 | 0.00 | 48 | |
| 20260508184441 | 71 | 137 | 0.0 | 0.9 | 0.00 | 0.00 | 0.00 | 49 | |
| 20260508183937 | 69 | 148 | 1.7 | 1.7 | 0.00 | 0.00 | 0.00 | 52 | |
| 20260508183434 | 71 | 128 | 1.7 | 2.6 | 0.00 | 0.00 | 0.00 | 50 | |
| 20260508182929 | 71 | 152 | 0.9 | 0.9 | 0.00 | 0.00 | 0.00 | 49 | |
| 20260508182427 | 70 | 141 | 0.0 | 0.9 | 0.00 | 0.00 | 0.00 | 49 | |
| 20260508181926 | 69 | 137 | 0.9 | 1.7 | 0.00 | 0.00 | 0.00 | 52 | |
| 20260508181424 | 70 | 142 | 0.0 | 0.9 | 0.00 | 0.00 | 0.00 | 49 | |
| 20260508180921 | 70 | 132 | 0.0 | 0.9 | 0.00 | 0.00 | 0.00 | 50 | |
| 20260508180418 | 71 | 123 | 0.9 | 2.6 | 0.00 | 0.00 | 0.00 | 53 | |
| 20260508175914 | 70 | 135 | 0.9 | 1.7 | 0.00 | 0.00 | 0.00 | 51 | |
| 20260508175411 | 69 | 135 | 0.0 | 1.7 | 0.00 | 0.00 | 0.00 | 51 | |
| 20260508174909 | 67 | 154 | 1.7 | 2.6 | 0.00 | 0.00 | 0.00 | 53 | |
| 20260508174406 | 69 | 142 | 0.0 | 1.7 | 0.00 | 0.00 | 0.00 | 53 | |
| 20260508173902 | 69 | 146 | 0.0 | 1.7 | 0.00 | 0.00 | 0.00 | 50 | |
| 20260508173400 | 69 | 134 | 0.0 | 1.7 | 0.00 | 0.00 | 0.00 | 56 | |
| 20260508172855 | 69 | 130 | 0.9 | 2.6 | 0.00 | 0.00 | 0.00 | 51 | |
| 20260508172353 | 69 | 131 | 1.7 | 2.6 | 0.00 | 0.00 | 0.00 | 54 | |
| 20260508171848 | 68 | 116 | 0.9 | 1.7 | 0.00 | 0.00 | 0.00 | 53 | |
| 20260508171345 | 68 | 125 | 0.9 | 0.9 | 0.00 | 0.00 | 0.00 | 54 | |
| 20260508170842 | 69 | 121 | 0.9 | 1.7 | 0.00 | 0.00 | 0.00 | 53 | |
| 20260508170340 | 68 | 128 | 1.7 | 2.6 | 0.00 | 0.00 | 0.00 | 51 | |
| 20260508165836 | 66 | 133 | 0.0 | 1.7 | 0.00 | 0.00 | 0.00 | 55 | |
| 20260508165334 | 65 | 155 | 0.9 | 1.7 | 0.00 | 0.00 | 0.00 | 56 | |
| 20260508164829 | 65 | 135 | 0.9 | 1.7 | 0.00 | 0.00 | 0.00 | 56 | |
| 20260508164326 | 65 | 145 | 1.7 | 1.7 | 0.00 | 0.00 | 0.00 | 58 | |
| 20260508163824 | 65 | 140 | 1.7 | 1.7 | 0.00 | 0.00 | 0.00 | 55 | |
| 20260508163322 | 65 | 115 | 0.0 | 2.6 | 0.00 | 0.00 | 0.00 | 55 | |
| 20260508162818 | 65 | 136 | 0.9 | 1.7 | 0.00 | 0.00 | 0.00 | 54 | |
| 20260508162314 | 65 | 156 | 1.7 | 1.7 | 0.00 | 0.00 | 0.00 | 54 | |
| 20260508161812 | 67 | 138 | 0.0 | 1.7 | 0.00 | 0.00 | 0.00 | 54 | |
| 20260508161309 | 65 | 137 | 0.0 | 0.9 | 0.00 | 0.00 | 0.00 | 55 | |
| 20260508160806 | 64 | 140 | 0.9 | 1.7 | 0.00 | 0.00 | 0.00 | 60 | |
| 20260508160305 | 65 | 147 | 2.6 | 2.6 | 0.00 | 0.00 | 0.00 | 57 | |
| 20260508155801 | 65 | 104 | 1.7 | 1.7 | 0.00 | 0.00 | 0.00 | 54 | |
| 20260508155258 | 66 | 133 | 1.7 | 1.7 | 0.00 | 0.00 | 0.00 | 52 | |
| 20260508154754 | 66 | 88 | 0.9 | 2.6 | 0.00 | 0.00 | 0.00 | 53 | |
| 20260508154253 | 65 | 132 | 0.9 | 1.7 | 0.00 | 0.00 | 0.00 | 55 | |
| 20260508153749 | 64 | 132 | 0.0 | 1.7 | 0.00 | 0.00 | 0.00 | 58 | |
| 20260508153246 | 64 | 138 | 0.9 | 2.6 | 0.00 | 0.00 | 0.00 | 56 | |
| 20260508152742 | 64 | 130 | 0.0 | 0.9 | 0.00 | 0.00 | 0.00 | 56 | |
| 20260508152238 | 64 | 142 | 0.9 | 2.6 | 0.00 | 0.00 | 0.00 | 57 | |
| 20260508151735 | 64 | 136 | 1.7 | 2.6 | 0.00 | 0.00 | 0.00 | 58 | |
| 20260508151232 | 64 | 152 | 0.9 | 2.6 | 0.00 | 0.00 | 0.00 | 61 | |
| 20260508150728 | 64 | 134 | 2.6 | 2.6 | 0.00 | 0.00 | 0.00 | 59 | |
| 20260508150225 | 64 | 150 | 0.9 | 1.7 | 0.00 | 0.00 | 0.00 | 60 | |
| 20260508145721 | 64 | 133 | 1.7 | 1.7 | 0.00 | 0.00 | 0.00 | 57 | |
| 20260508145217 | 64 | 143 | 0.0 | 0.9 | 0.00 | 0.00 | 0.00 | 59 | |
| 20260508144715 | 64 | 143 | 0.9 | 1.7 | 0.00 | 0.00 | 0.00 | 58 | |
| 20260508144213 | 63 | 143 | 1.7 | 2.6 | 0.00 | 0.00 | 0.00 | 57 | |
| 20260508143710 | 63 | 142 | 0.9 | 1.7 | 0.00 | 0.00 | 0.00 | 60 | |
| 20260508143207 | 63 | 129 | 0.9 | 1.7 | 0.00 | 0.00 | 0.00 | 61 | |
| 20260508142703 | 62 | 125 | 0.9 | 1.7 | 0.00 | 0.00 | 0.00 | 60 | |
| 20260508142200 | 62 | 133 | 0.0 | 1.7 | 0.00 | 0.00 | 0.00 | 60 | |
| 20260508141656 | 62 | 127 | 2.6 | 2.6 | 0.00 | 0.00 | 0.00 | 62 | |
| 20260508141153 | 62 | 140 | 0.9 | 2.6 | 0.00 | 0.00 | 0.00 | 61 | |
| 20260508140651 | 62 | 126 | 0.9 | 1.7 | 0.00 | 0.00 | 0.00 | 60 | |
| 20260508140148 | 62 | 136 | 1.7 | 1.7 | 0.00 | 0.00 | 0.00 | 62 | |
| 20260508135644 | 62 | 133 | 0.0 | 1.7 | 0.00 | 0.00 | 0.00 | 61 | |
| 20260508135139 | 61 | 128 | 1.7 | 1.7 | 0.00 | 0.00 | 0.00 | 63 | |
| 20260508134636 | 61 | 138 | 1.7 | 2.6 | 0.00 | 0.00 | 0.00 | 62 | |
| 20260508134133 | 61 | 130 | 0.9 | 2.6 | 0.00 | 0.00 | 0.00 | 62 | |
| 20260508133630 | 61 | 125 | 0.9 | 1.7 | 0.00 | 0.00 | 0.00 | 63 | |
| 20260508133127 | 60 | 136 | 0.0 | 0.9 | 0.00 | 0.00 | 0.00 | 66 | |
| 20260508132625 | 60 | 71 | 0.9 | 1.7 | 0.00 | 0.00 | 0.00 | 65 | |
| 20260508132122 | 60 | 113 | 1.7 | 1.7 | 0.00 | 0.00 | 0.00 | 67 | |
| 20260508131617 | 60 | 128 | 0.0 | 0.9 | 0.00 | 0.00 | 0.00 | 67 | |
| 20260508131114 | 59 | 122 | 0.9 | 2.6 | 0.00 | 0.00 | 0.00 | 67 | |
| 20260508130611 | 59 | 135 | 0.9 | 0.9 | 0.00 | 0.00 | 0.00 | 67 | |
| 20260508130108 | 59 | 123 | 0.9 | 1.7 | 0.00 | 0.00 | 0.00 | 68 | |
| 20260508125608 | 58 | 142 | 0.0 | 1.7 | 0.00 | 0.00 | 0.00 | 69 | |
| 20260508125106 | 58 | 49 | 0.9 | 2.6 | 0.00 | 0.00 | 0.00 | 69 | |
| 20260508124604 | 58 | 79 | 1.7 | 5.2 | 0.00 | 0.00 | 0.00 | 70 | |
| 20260508124100 | 58 | 118 | 0.9 | 1.7 | 0.00 | 0.00 | 0.00 | 72 | |
| 20260508123559 | 58 | 123 | 0.9 | 1.7 | 0.00 | 0.00 | 0.00 | 73 | |
| 20260508123056 | 57 | 127 | 0.0 | 0.0 | 0.00 | 0.00 | 0.00 | 74 | |
| 20260508122552 | 57 | 112 | 0.9 | 1.7 | 0.00 | 0.00 | 0.00 | 74 | |
| 20260508122049 | 57 | 88 | 2.6 | 2.6 | 0.00 | 0.00 | 0.00 | 74 | |
| 20260508121548 | 57 | 127 | 0.9 | 1.7 | 0.00 | 0.00 | 0.00 | 75 | |
| 20260508121045 | 56 | 117 | 0.9 | 1.7 | 0.00 | 0.00 | 0.00 | 75 | |
| 20260508120542 | 56 | 71 | 0.0 | 0.0 | 0.00 | 0.00 | 0.00 | 76 | |
| 20260508120041 | 56 | 123 | 0.0 | 0.9 | 0.00 | 0.00 | 0.00 | 76 | |
| 20260508115538 | 55 | 118 | 1.7 | 2.6 | 0.00 | 0.00 | 0.00 | 76 | |
| 20260508115034 | 55 | 121 | 0.0 | 0.9 | 0.00 | 0.00 | 0.00 | 78 | |
| 20260508114531 | 55 | 123 | 0.9 | 0.9 | 0.00 | 0.00 | 0.00 | 79 | |
| 20260508114028 | 54 | 124 | 0.0 | 0.0 | 0.00 | 0.00 | 0.00 | 80 | |
| 20260508113525 | 54 | 117 | 0.9 | 0.9 | 0.00 | 0.00 | 0.00 | 81 | |
| 20260508113023 | 54 | 123 | 0.0 | 0.9 | 0.00 | 0.00 | 0.00 | 81 | |
| 20260508112519 | 54 | 121 | 0.0 | 0.0 | 0.00 | 0.00 | 0.00 | 82 | |
| 20260508112016 | 54 | 120 | 0.0 | 0.0 | 0.00 | 0.00 | 0.00 | 82 | |
| 20260508111513 | 54 | 121 | 0.0 | 0.9 | 0.00 | 0.00 | 0.00 | 82 | |
| 20260508111010 | 54 | 121 | 0.0 | 0.0 | 0.00 | 0.00 | 0.00 | 81 | |
| 20260508110508 | 54 | 122 | 0.0 | 0.9 | 0.00 | 0.00 | 0.00 | 81 | |
| 20260508110004 | 53 | 121 | 0.0 | 0.0 | 0.00 | 0.00 | 0.00 | 82 | |
| 20260508105459 | 53 | 121 | 0.0 | 0.9 | 0.00 | 0.00 | 0.00 | 82 | |
| 20260508104956 | 53 | 118 | 0.0 | 0.9 | 0.00 | 0.00 | 0.00 | 83 | |
| 20260508104454 | 52 | 123 | 0.0 | 0.0 | 0.00 | 0.00 | 0.00 | 84 | |
| 20260508103950 | 53 | 123 | 0.0 | 0.0 | 0.00 | 0.00 | 0.00 | 86 | |
| 20260508103447 | 53 | 123 | 0.0 | 0.0 | 0.00 | 0.00 | 0.00 | 86 | |
| 20260508102944 | 53 | 123 | 0.0 | 0.0 | 0.00 | 0.00 | 0.00 | 84 | |
| 20260508102443 | 54 | 123 | 0.0 | 0.0 | 0.00 | 0.00 | 0.00 | 83 | |
| 20260508101939 | 54 | 123 | 0.0 | 0.9 | 0.00 | 0.00 | 0.00 | 81 | |
| 20260508101437 | 54 | 71 | 0.0 | 0.9 | 0.00 | 0.00 | 0.00 | 80 | |
| 20260508100934 | 54 | 124 | 0.0 | 0.0 | 0.00 | 0.00 | 0.00 | 80 | |
| 20260508100433 | 54 | 125 | 0.0 | 0.0 | 0.00 | 0.00 | 0.00 | 78 | |
| 20260508095928 | 54 | 125 | 0.0 | 0.0 | 0.00 | 0.00 | 0.00 | 77 | |
| 20260508095426 | 55 | 127 | 0.0 | 0.0 | 0.00 | 0.00 | 0.00 | 76 | |
| 20260508094923 | 55 | 132 | 0.0 | 0.0 | 0.00 | 0.00 | 0.00 | 77 | |
| 20260508094419 | 55 | 128 | 0.0 | 0.0 | 0.00 | 0.00 | 0.00 | 78 | |
| 20260508093916 | 55 | 71 | 0.0 | 0.9 | 0.00 | 0.00 | 0.00 | 76 | |
| 20260508093414 | 55 | 133 | 0.0 | 0.0 | 0.00 | 0.00 | 0.00 | 78 | |
| 20260508092911 | 55 | 142 | 0.0 | 0.0 | 0.00 | 0.00 | 0.00 | 77 | |
| 20260508092409 | 55 | 115 | 0.0 | 0.0 | 0.00 | 0.00 | 0.00 | 75 | |
| 20260508091907 | 55 | 115 | 0.0 | 0.0 | 0.00 | 0.00 | 0.00 | 75 | |
| 20260508091404 | 56 | 142 | 0.0 | 0.0 | 0.00 | 0.00 | 0.00 | 74 | |
| 20260508090901 | 56 | 130 | 0.0 | 0.0 | 0.00 | 0.00 | 0.00 | 74 | |
| 20260508090400 | 56 | 116 | 1.7 | 1.7 | 0.00 | 0.00 | 0.00 | 74 | |
| 20260508085855 | 56 | 125 | 0.0 | 0.9 | 0.00 | 0.00 | 0.00 | 73 | |
| 20260508085352 | 56 | 121 | 0.9 | 0.9 | 0.00 | 0.00 | 0.00 | 73 | |
| 20260508084848 | 56 | 112 | 0.0 | 1.7 | 0.00 | 0.00 | 0.00 | 73 | |
| 20260508084345 | 57 | 121 | 0.0 | 1.7 | 0.00 | 0.00 | 0.00 | 73 | |
| 20260508083843 | 56 | 120 | 0.0 | 1.7 | 0.00 | 0.00 | 0.00 | 73 | |
| 20260508083341 | 57 | 95 | 1.7 | 1.7 | 0.00 | 0.00 | 0.00 | 73 | |
| 20260508082840 | 57 | 90 | 0.0 | 1.7 | 0.00 | 0.00 | 0.00 | 72 | |
| 20260508082338 | 57 | 115 | 0.9 | 2.6 | 0.00 | 0.00 | 0.00 | 72 | |
| 20260508081835 | 57 | 110 | 0.9 | 2.6 | 0.00 | 0.00 | 0.00 | 71 | |
| 20260508081332 | 57 | 118 | 0.9 | 1.7 | 0.00 | 0.00 | 0.00 | 70 | |
| 20260508080829 | 57 | 105 | 1.7 | 1.7 | 0.00 | 0.00 | 0.00 | 70 | |
| 20260508080327 | 57 | 108 | 0.9 | 1.7 | 0.00 | 0.00 | 0.00 | 70 | |
| 20260508075823 | 58 | 125 | 0.0 | 0.9 | 0.00 | 0.00 | 0.00 | 70 | |
| 20260508075320 | 58 | 112 | 0.0 | 1.7 | 0.00 | 0.00 | 0.00 | 69 | |
| 20260508074818 | 58 | 67 | 2.6 | 2.6 | 0.00 | 0.00 | 0.00 | 69 | |
| 20260508074315 | 57 | 129 | 0.0 | 1.7 | 0.00 | 0.00 | 0.00 | 71 | |
| 20260508073812 | 57 | 112 | 0.0 | 0.9 | 0.00 | 0.00 | 0.00 | 71 | |
| 20260508073310 | 57 | 108 | 0.0 | 1.7 | 0.00 | 0.00 | 0.00 | 72 | |
| 20260508072806 | 57 | 125 | 0.0 | 1.7 | 0.00 | 0.00 | 0.00 | 72 | |
| 20260508072307 | 57 | 134 | 0.0 | 0.0 | 0.00 | 0.00 | 0.00 | 72 | |
| 20260508071800 | 57 | 121 | 0.0 | 0.9 | 0.00 | 0.00 | 0.00 | 72 | |
| 20260508071258 | 56 | 123 | 0.0 | 0.9 | 0.00 | 0.00 | 0.00 | 73 | |
| 20260508070755 | 56 | 118 | 0.0 | 0.9 | 0.00 | 0.00 | 0.00 | 74 | |
| 20260508070254 | 56 | 125 | 0.9 | 1.7 | 0.00 | 0.00 | 0.00 | 74 | |
| 20260508065750 | 55 | 123 | 0.9 | 1.7 | 0.00 | 0.00 | 0.00 | 75 | |
| 20260508065248 | 54 | 123 | 0.9 | 0.9 | 0.00 | 0.00 | 0.00 | 78 | |
| 20260508064746 | 53 | 127 | 0.0 | 0.0 | 0.00 | 0.00 | 0.00 | 85 | |
| 20260508064244 | 53 | 127 | 0.0 | 0.0 | 0.00 | 0.00 | 0.00 | 87 | |
| 20260508063741 | 54 | 127 | 0.0 | 0.0 | 0.00 | 0.00 | 0.00 | 86 | |
| 20260508063239 | 54 | 128 | 0.0 | 0.0 | 0.00 | 0.00 | 0.00 | 86 | |
| 20260508062736 | 54 | 128 | 0.0 | 0.0 | 0.00 | 0.00 | 0.00 | 85 | |
| 20260508062234 | 54 | 128 | 0.0 | 0.0 | 0.00 | 0.00 | 0.00 | 83 | |
| 20260508061730 | 55 | 128 | 0.0 | 0.0 | 0.00 | 0.00 | 0.00 | 81 | |
| 20260508061227 | 55 | 128 | 0.0 | 0.0 | 0.00 | 0.00 | 0.00 | 83 | |
| 20260508060724 | 56 | 128 | 0.0 | 0.0 | 0.00 | 0.00 | 0.00 | 81 | |
| 20260508060222 | 57 | 128 | 0.0 | 0.0 | 0.00 | 0.00 | 0.00 | 78 | |
| 20260508055717 | 57 | 128 | 0.0 | 0.0 | 0.00 | 0.00 | 0.00 | 74 | |
| 20260508055214 | 57 | 127 | 0.0 | 0.0 | 0.00 | 0.00 | 0.00 | 70 | |
| 20260508054710 | 57 | 123 | 0.0 | 0.9 | 0.00 | 0.00 | 0.00 | 70 | |
| 20260508054209 | 57 | 130 | 0.0 | 0.0 | 0.00 | 0.00 | 0.00 | 70 | |
| 20260508053705 | 57 | 129 | 0.0 | 0.9 | 0.00 | 0.00 | 0.00 | 71 | |
| 20260508053203 | 57 | 125 | 0.0 | 0.9 | 0.00 | 0.00 | 0.00 | 72 | |
| 20260508052700 | 57 | 125 | 0.0 | 0.9 | 0.00 | 0.00 | 0.00 | 70 | |
| 20260508052157 | 57 | 127 | 0.0 | 0.0 | 0.00 | 0.00 | 0.00 | 73 | |
| 20260508051653 | 57 | 129 | 0.0 | 0.0 | 0.00 | 0.00 | 0.00 | 73 | |
| 20260508051148 | 57 | 125 | 0.0 | 0.0 | 0.00 | 0.00 | 0.00 | 76 | |
| 20260508050645 | 58 | 130 | 0.0 | 0.0 | 0.00 | 0.00 | 0.00 | 78 | |
| 20260508050142 | 58 | 130 | 0.0 | 0.0 | 0.00 | 0.00 | 0.00 | 73 | |
| 20260508045638 | 59 | 130 | 0.0 | 0.0 | 0.00 | 0.00 | 0.00 | 78 | |
| 20260508045136 | 59 | 128 | 0.0 | 1.7 | 0.00 | 0.00 | 0.00 | 66 | |
| 20260508044633 | 59 | 127 | 0.0 | 0.0 | 0.00 | 0.00 | 0.00 | 67 | |
| 20260508044129 | 59 | 118 | 0.9 | 1.7 | 0.00 | 0.00 | 0.00 | 66 | |
| 20260508043626 | 59 | 131 | 0.0 | 2.6 | 0.00 | 0.00 | 0.00 | 66 | |
| 20260508043124 | 59 | 130 | 0.0 | 1.7 | 0.00 | 0.00 | 0.00 | 69 | |
| 20260508042620 | 58 | 125 | 0.0 | 1.7 | 0.00 | 0.00 | 0.00 | 69 | |
| 20260508042117 | 58 | 132 | 0.0 | 2.6 | 0.00 | 0.00 | 0.00 | 70 | |
| 20260508041613 | 57 | 126 | 0.0 | 0.0 | 0.00 | 0.00 | 0.00 | 75 | |
| 20260508041110 | 57 | 126 | 0.0 | 0.0 | 0.00 | 0.00 | 0.00 | 75 | |
| 20260508040607 | 58 | 127 | 0.0 | 0.0 | 0.00 | 0.00 | 0.00 | 76 | |
| 20260508040105 | 58 | 126 | 0.0 | 0.0 | 0.00 | 2.43 | 2.43 | 78 | |
| 20260508035601 | 58 | 126 | 0.0 | 0.0 | 0.00 | 2.43 | 2.43 | 74 | |
| 20260508035059 | 59 | 126 | 0.0 | 0.0 | 0.00 | 2.43 | 2.43 | 74 | |
| 20260508034555 | 59 | 129 | 0.0 | 0.0 | 0.00 | 2.43 | 2.43 | 70 | |
| 20260508034053 | 59 | 134 | 0.0 | 0.0 | 0.00 | 2.43 | 2.43 | 68 | |
| 20260508033550 | 59 | 133 | 0.0 | 0.0 | 0.00 | 2.43 | 2.43 | 68 | |
| 20260508033049 | 59 | 134 | 0.0 | 0.0 | 0.00 | 2.43 | 2.43 | 68 | |
| 20260508032544 | 60 | 135 | 0.0 | 0.0 | 0.00 | 2.43 | 2.43 | 71 | |
| 20260508032042 | 60 | 130 | 0.0 | 2.6 | 0.00 | 2.43 | 2.43 | 64 | |
| 20260508031539 | 60 | 128 | 0.0 | 1.7 | 0.00 | 2.43 | 2.43 | 65 | |
| 20260508031035 | 60 | 129 | 0.0 | 0.9 | 0.00 | 2.43 | 2.43 | 66 | |
| 20260508030531 | 60 | 127 | 0.0 | 0.9 | 0.00 | 2.43 | 2.43 | 65 | |
| 20260508030030 | 60 | 129 | 0.0 | 0.9 | 0.00 | 2.43 | 2.43 | 64 | |
| 20260508025525 | 60 | 129 | 0.0 | 2.6 | 0.00 | 2.43 | 2.43 | 65 | |
| 20260508025023 | 60 | 112 | 0.0 | 1.7 | 0.00 | 2.43 | 2.43 | 66 | |
| 20260508024518 | 60 | 130 | 0.0 | 3.5 | 0.00 | 2.43 | 2.43 | 65 | |
| 20260508024015 | 60 | 134 | 0.0 | 5.2 | 0.00 | 2.43 | 2.43 | 66 | |
| 20260508023512 | 60 | 116 | 0.9 | 0.9 | 0.00 | 2.43 | 2.43 | 67 | |
| 20260508023010 | 60 | 119 | 0.9 | 0.9 | 0.00 | 2.43 | 2.43 | 68 | |
| 20260508022505 | 60 | 135 | 0.0 | 0.0 | 0.00 | 2.43 | 2.43 | 71 | |
| 20260508022003 | 61 | 137 | 0.0 | 0.9 | 0.00 | 2.43 | 2.43 | 68 | |
| 20260508021458 | 61 | 129 | 0.0 | 3.5 | 0.00 | 2.43 | 2.43 | 67 | |
| 20260508020954 | 61 | 122 | 0.9 | 0.9 | 0.00 | 2.43 | 2.43 | 68 | |
| 20260508020452 | 61 | 109 | 1.7 | 3.5 | 0.00 | 2.43 | 2.43 | 67 | |
| 20260508015949 | 61 | 126 | 0.0 | 0.0 | 0.00 | 2.43 | 2.43 | 69 | |
| 20260508015447 | 61 | 63 | 2.6 | 3.5 | 0.00 | 2.43 | 2.43 | 68 | |
| 20260508014943 | 62 | 127 | 0.0 | 0.9 | 0.00 | 2.43 | 2.43 | 69 | |
| 20260508014440 | 62 | 134 | 0.0 | 2.6 | 0.00 | 2.43 | 2.43 | 68 | |
| 20260508013936 | 62 | 115 | 0.0 | 2.6 | 0.00 | 2.43 | 2.43 | 68 | |
| 20260508013432 | 62 | 105 | 0.0 | 0.9 | 0.00 | 2.43 | 2.43 | 69 | |
| 20260508012930 | 62 | 71 | 1.7 | 1.7 | 0.00 | 2.43 | 2.43 | 69 | |
| 20260508012426 | 62 | 123 | 0.9 | 2.6 | 0.00 | 2.43 | 2.43 | 68 | |
| 20260508011924 | 63 | 122 | 0.0 | 0.9 | 0.00 | 2.43 | 2.43 | 68 | |
| 20260508011422 | 63 | 177 | 0.9 | 2.6 | 0.00 | 2.43 | 2.43 | 68 | |
| 20260508010919 | 63 | 77 | 0.9 | 5.2 | 0.00 | 2.43 | 2.43 | 67 | |
| 20260508010416 | 63 | 118 | 0.0 | 3.5 | 0.00 | 2.43 | 2.43 | 68 | |
| 20260508005913 | 64 | 127 | 0.9 | 1.7 | 0.00 | 2.43 | 2.43 | 67 | |
| 20260508005410 | 64 | 124 | 0.0 | 2.6 | 0.00 | 2.43 | 2.43 | 67 | |
| 20260508004906 | 64 | 84 | 0.9 | 3.5 | 0.00 | 2.43 | 2.43 | 68 | |
| 20260508004402 | 65 | 114 | 2.6 | 3.5 | 0.00 | 2.43 | 2.43 | 67 | |
| 20260508003859 | 65 | 133 | 0.0 | 0.9 | 0.00 | 2.43 | 2.43 | 68 | |
| 20260508003356 | 66 | 90 | 1.7 | 3.5 | 0.00 | 2.43 | 2.43 | 67 | |
| 20260508002853 | 66 | 131 | 0.0 | 0.9 | 0.00 | 2.43 | 2.43 | 67 |